createdAt,value
2023-08-12T00:00:51.080Z,16.73
2023-08-12T00:03:18.911Z,9.35
2023-08-12T00:05:47.612Z,4.82
2023-08-12T00:08:15.286Z,3.97
2023-08-12T00:10:44.632Z,4.13
2023-08-12T00:13:14.591Z,4.00
2023-08-12T00:15:42.743Z,3.50
2023-08-12T00:18:10.607Z,3.42
2023-08-12T00:20:39.128Z,3.70
2023-08-12T00:23:07.002Z,4.10
2023-08-12T00:25:34.578Z,4.78
2023-08-12T00:28:03.824Z,5.40
2023-08-12T00:30:31.478Z,3.55
2023-08-12T00:32:59.118Z,4.15
2023-08-12T00:35:26.847Z,3.60
2023-08-12T00:37:54.533Z,3.85
2023-08-12T00:40:22.218Z,3.35
2023-08-12T00:42:49.798Z,5.38
2023-08-12T00:45:18.853Z,3.78
2023-08-12T00:47:46.458Z,6.45
2023-08-12T00:50:16.457Z,5.10
2023-08-12T00:52:44.340Z,4.53
2023-08-12T00:55:12.399Z,5.53
2023-08-12T00:57:40.082Z,3.67
2023-08-12T01:00:09.171Z,4.95
2023-08-12T01:02:38.372Z,4.70
2023-08-12T01:05:07.048Z,3.42
2023-08-12T01:07:35.290Z,3.72
2023-08-12T01:10:03.002Z,3.60
2023-08-12T01:12:34.359Z,3.25
2023-08-12T01:15:07.728Z,5.15
2023-08-12T01:17:36.241Z,3.15
2023-08-12T01:20:09.314Z,4.85
2023-08-12T01:22:40.463Z,4.07
2023-08-12T01:25:10.303Z,4.10
2023-08-12T01:27:38.346Z,4.55
2023-08-12T01:30:07.745Z,3.50
2023-08-12T01:32:40.789Z,5.63
2023-08-12T01:35:13.503Z,5.22
2023-08-12T01:37:41.447Z,6.10
2023-08-12T01:40:11.687Z,4.00
2023-08-12T01:42:41.269Z,3.58
2023-08-12T01:45:09.582Z,5.65
2023-08-12T01:47:37.201Z,3.28
2023-08-12T01:50:05.484Z,3.28
2023-08-12T01:52:33.190Z,4.43
2023-08-12T01:55:00.988Z,4.28
2023-08-12T01:57:30.049Z,4.72
2023-08-12T01:59:57.781Z,6.95
2023-08-12T02:02:25.484Z,4.18
2023-08-12T02:04:53.118Z,4.72
2023-08-12T02:07:20.788Z,5.18
2023-08-12T02:09:48.448Z,6.93
2023-08-12T02:12:16.058Z,7.20
2023-08-12T02:14:45.197Z,8.23
2023-08-12T02:17:13.042Z,4.93
2023-08-12T02:19:40.890Z,13.25
2023-08-12T02:22:08.548Z,5.93
2023-08-12T02:24:36.220Z,6.47
2023-08-12T02:27:04.005Z,6.53
2023-08-12T02:29:31.587Z,9.50
2023-08-12T02:32:00.667Z,7.57
2023-08-12T02:34:28.339Z,5.87
2023-08-12T02:36:55.927Z,8.97
2023-08-12T02:39:23.557Z,11.43
2023-08-12T02:41:51.158Z,11.47
2023-08-12T02:44:19.303Z,15.23
2023-08-12T02:46:47.019Z,17.80
2023-08-12T02:49:16.147Z,18.10
2023-08-12T02:51:43.847Z,17.37
2023-08-12T02:54:11.467Z,15.90
2023-08-12T02:56:39.132Z,15.77
2023-08-12T02:59:06.818Z,12.03
2023-08-12T03:01:34.772Z,9.57
2023-08-12T03:04:02.437Z,12.20
2023-08-12T03:06:31.423Z,8.20
2023-08-12T03:08:59.082Z,6.97
2023-08-12T03:11:26.866Z,9.27
2023-08-12T03:13:54.493Z,8.20
2023-08-12T03:16:22.143Z,7.07
2023-08-12T03:18:49.763Z,6.00
2023-08-12T03:21:17.416Z,6.60
2023-08-12T03:23:46.626Z,5.87
2023-08-12T03:26:15.323Z,6.13
2023-08-12T03:28:42.979Z,5.33
2023-08-12T03:31:10.640Z,4.87
2023-08-12T03:33:38.287Z,4.83
2023-08-12T03:36:06.413Z,6.63
2023-08-12T03:38:34.053Z,4.90
2023-08-12T03:41:03.305Z,4.87
2023-08-12T03:43:30.996Z,5.20
2023-08-12T03:45:58.704Z,6.40
2023-08-12T03:48:26.402Z,5.90
2023-08-12T03:50:54.137Z,4.33
2023-08-12T03:53:21.834Z,6.67
2023-08-12T03:55:49.482Z,5.70
2023-08-12T03:58:18.993Z,5.13
2023-08-12T04:00:46.715Z,6.17
2023-08-12T04:03:15.269Z,4.90
2023-08-12T04:05:49.694Z,5.77
2023-08-12T04:08:17.379Z,5.20
2023-08-12T04:10:47.296Z,4.57
2023-08-12T04:13:15.190Z,6.23
2023-08-12T04:15:44.474Z,6.23
2023-08-12T04:18:12.119Z,6.70
2023-08-12T04:20:40.498Z,5.23
2023-08-12T04:23:08.235Z,4.40
2023-08-12T04:25:35.840Z,5.77
2023-08-12T04:28:03.560Z,4.93
2023-08-12T04:30:31.303Z,4.17
2023-08-12T04:33:00.331Z,5.10
2023-08-12T04:35:28.105Z,5.32
2023-08-12T04:37:55.766Z,4.40
2023-08-12T04:40:23.610Z,4.50
2023-08-12T04:42:51.353Z,5.10
2023-08-12T04:45:19.163Z,4.00
2023-08-12T04:47:46.833Z,3.97
2023-08-12T04:50:16.022Z,5.43
2023-08-12T04:52:43.699Z,4.63
2023-08-12T04:55:12.651Z,4.28
2023-08-12T04:57:40.423Z,4.95
2023-08-12T05:00:09.356Z,3.40
2023-08-12T05:02:37.192Z,4.05
2023-08-12T05:05:06.214Z,3.53
2023-08-12T05:07:37.022Z,3.83
2023-08-12T05:10:07.091Z,3.85
2023-08-12T05:12:34.768Z,3.78
2023-08-12T05:15:02.699Z,4.40
2023-08-12T05:17:30.439Z,3.40
2023-08-12T05:19:58.235Z,3.60
2023-08-12T05:22:26.056Z,3.80
2023-08-12T05:24:55.107Z,3.90
2023-08-12T05:27:22.850Z,3.53
2023-08-12T05:29:50.436Z,3.78
2023-08-12T05:32:18.051Z,3.60
2023-08-12T05:34:45.655Z,3.57
2023-08-12T05:37:13.393Z,5.93
2023-08-12T05:39:41.046Z,3.77
2023-08-12T05:42:10.414Z,6.60
2023-08-12T05:44:38.492Z,3.80
2023-08-12T05:47:06.458Z,4.87
2023-08-12T05:49:34.088Z,5.83
2023-08-12T05:52:01.755Z,4.87
2023-08-12T05:54:29.390Z,11.90
2023-08-12T05:57:00.117Z,50.10
2023-08-12T05:59:29.252Z,41.83
2023-08-12T06:01:56.931Z,56.60
2023-08-12T06:04:24.656Z,198.37
2023-08-12T06:06:52.459Z,232.63
2023-08-12T06:09:20.206Z,135.83
2023-08-12T06:11:47.867Z,13.83
2023-08-12T06:14:15.509Z,27.47
2023-08-12T06:16:44.514Z,17.10
2023-08-12T06:19:12.419Z,42.60
2023-08-12T06:21:40.224Z,144.57
2023-08-12T06:24:08.499Z,18.07
2023-08-12T06:26:36.205Z,18.70
2023-08-12T06:29:06.070Z,19.03
2023-08-12T06:31:34.177Z,25.97
2023-08-12T06:34:03.170Z,18.43
2023-08-12T06:36:30.798Z,19.13
2023-08-12T06:39:00.631Z,19.07
2023-08-12T06:41:28.747Z,20.30
2023-08-12T06:43:56.354Z,17.23
2023-08-12T06:46:24.104Z,24.40
2023-08-12T06:48:51.748Z,20.57
2023-08-12T06:51:20.863Z,32.17
2023-08-12T06:53:48.471Z,20.67
2023-08-12T06:56:16.096Z,20.03
2023-08-12T06:58:43.761Z,21.20
2023-08-12T07:01:13.613Z,18.97
2023-08-12T07:03:43.049Z,17.40
2023-08-12T07:06:10.878Z,16.00
2023-08-12T07:08:40.033Z,15.27
2023-08-12T07:11:07.811Z,12.43
2023-08-12T07:13:35.723Z,16.60
2023-08-12T07:16:03.548Z,13.23
2023-08-12T07:18:32.066Z,15.40
2023-08-12T07:21:00.910Z,12.17
2023-08-12T07:23:28.589Z,11.53
2023-08-12T07:25:57.722Z,14.27
2023-08-12T07:28:25.397Z,16.63
2023-08-12T07:30:53.526Z,15.17
2023-08-12T07:33:21.900Z,16.07
2023-08-12T07:35:49.540Z,16.63
2023-08-12T07:38:17.121Z,15.83
2023-08-12T07:40:44.780Z,14.27
2023-08-12T07:43:13.701Z,14.60
2023-08-12T07:45:41.282Z,12.67
2023-08-12T07:48:09.018Z,11.93
2023-08-12T07:50:36.819Z,13.10
2023-08-12T07:53:04.668Z,10.20
2023-08-12T07:55:32.664Z,13.60
2023-08-12T07:58:00.302Z,12.10
2023-08-12T08:00:29.325Z,13.33
2023-08-12T08:02:56.953Z,13.63
2023-08-12T08:05:24.680Z,14.13
2023-08-12T08:07:52.345Z,12.02
2023-08-12T08:10:19.979Z,9.95
2023-08-12T08:12:47.576Z,11.43
2023-08-12T08:15:15.201Z,10.02
2023-08-12T08:17:44.280Z,11.95
2023-08-12T08:20:12.448Z,10.88
2023-08-12T08:22:40.691Z,10.50
2023-08-12T08:25:09.264Z,8.68
2023-08-12T08:27:36.847Z,8.82
2023-08-12T08:30:05.031Z,7.00
2023-08-12T08:32:32.673Z,8.27
2023-08-12T08:35:01.944Z,6.78
2023-08-12T08:37:29.599Z,8.43
2023-08-12T08:39:57.141Z,6.68
2023-08-12T08:42:26.438Z,6.85
2023-08-12T08:44:55.027Z,5.53
2023-08-12T08:47:28.056Z,6.60
2023-08-12T08:49:57.317Z,6.90
2023-08-12T08:52:26.818Z,6.70
2023-08-12T08:54:55.138Z,5.30
2023-08-12T08:57:24.822Z,4.50
2023-08-12T09:02:41.700Z,6.63
2023-08-12T09:05:10.198Z,5.80
2023-08-12T09:07:39.297Z,8.00
2023-08-12T09:10:08.332Z,6.80
2023-08-12T09:12:37.562Z,8.52
2023-08-12T09:15:07.324Z,6.90
2023-08-12T09:17:35.421Z,6.60
2023-08-12T09:20:04.259Z,7.22
2023-08-12T09:22:31.928Z,6.88
2023-08-12T09:25:02.139Z,6.22
2023-08-12T09:27:30.246Z,7.75
2023-08-12T09:29:58.630Z,6.43
2023-08-12T09:32:26.322Z,7.00
2023-08-12T09:34:55.306Z,6.90
2023-08-12T09:37:24.561Z,6.47
2023-08-12T09:39:53.113Z,6.18
2023-08-12T09:42:22.221Z,6.10
2023-08-12T09:44:49.860Z,5.07
2023-08-12T09:47:17.443Z,6.30
2023-08-12T09:49:45.210Z,6.82
2023-08-12T09:52:14.138Z,6.25
2023-08-12T09:54:44.062Z,6.38
2023-08-12T09:57:13.509Z,10.05
2023-08-12T09:59:42.569Z,5.72
2023-08-12T10:02:15.237Z,8.05
2023-08-12T10:04:44.290Z,8.55
2023-08-12T10:07:13.892Z,8.45
2023-08-12T10:09:41.909Z,9.10
2023-08-12T10:12:10.386Z,10.60
2023-08-12T10:14:39.352Z,8.25
2023-08-12T10:17:10.422Z,8.65
2023-08-12T10:19:38.387Z,9.98
2023-08-12T10:22:06.180Z,9.20
2023-08-12T10:24:36.211Z,13.63
2023-08-12T10:27:03.956Z,9.52
2023-08-12T10:29:32.561Z,11.38
2023-08-12T10:32:01.589Z,7.72
2023-08-12T10:34:30.578Z,11.43
2023-08-12T10:37:03.435Z,10.10
2023-08-12T10:39:33.748Z,10.17
2023-08-12T10:42:01.666Z,9.10
2023-08-12T10:44:30.740Z,9.73
2023-08-12T10:47:00.443Z,7.47
2023-08-12T10:49:28.139Z,9.38
2023-08-12T10:51:57.328Z,8.40
2023-08-12T10:54:28.231Z,12.00
2023-08-12T10:57:14.470Z,9.60
2023-08-12T10:59:56.341Z,7.55
2023-08-12T11:02:28.526Z,8.63
2023-08-12T11:04:57.605Z,7.15
2023-08-12T11:07:34.893Z,6.10
2023-08-12T11:10:06.847Z,7.60
2023-08-12T11:12:35.945Z,4.10
2023-08-12T11:15:05.180Z,4.60
2023-08-12T11:17:37.246Z,4.60
2023-08-12T11:20:07.684Z,5.75
2023-08-12T11:22:39.366Z,4.43
2023-08-12T11:25:09.799Z,6.25
2023-08-12T11:27:42.763Z,5.80
2023-08-12T11:30:12.354Z,4.07
2023-08-12T11:32:40.869Z,5.78
2023-08-12T11:35:10.340Z,3.33
2023-08-12T11:37:40.132Z,3.70
2023-08-12T11:40:10.470Z,5.55
2023-08-12T11:42:38.638Z,3.70
2023-08-12T11:45:08.003Z,3.38
2023-08-12T11:47:35.926Z,3.63
2023-08-12T11:50:04.780Z,4.32
2023-08-12T11:52:32.741Z,3.22
2023-08-12T11:55:01.834Z,3.47
2023-08-12T11:57:29.718Z,3.92
2023-08-12T12:00:00.794Z,3.63
2023-08-12T12:02:28.605Z,5.60
2023-08-12T12:04:56.459Z,4.13
2023-08-12T12:07:25.562Z,4.13
2023-08-12T12:09:54.330Z,4.18
2023-08-12T12:12:26.616Z,6.18
2023-08-12T12:14:55.550Z,4.22
2023-08-12T12:17:23.883Z,3.75
2023-08-12T12:19:57.606Z,3.60
2023-08-12T12:22:28.836Z,4.00
2023-08-12T12:24:56.556Z,2.88
2023-08-12T12:27:26.406Z,3.65
2023-08-12T12:29:54.049Z,3.63
2023-08-12T12:32:22.245Z,4.63
2023-08-12T12:34:50.069Z,3.53
2023-08-12T12:37:17.750Z,3.17
2023-08-12T12:39:45.462Z,4.15
2023-08-12T12:42:13.735Z,3.63
2023-08-12T12:44:42.927Z,4.80
2023-08-12T12:47:12.136Z,4.00
2023-08-12T12:49:39.864Z,4.45
2023-08-12T12:52:07.488Z,6.18
2023-08-12T12:54:35.171Z,4.95
2023-08-12T12:57:03.052Z,3.58
2023-08-12T12:59:30.688Z,4.57
2023-08-12T13:01:59.680Z,4.22
2023-08-12T13:04:27.376Z,6.90
2023-08-12T13:06:55.023Z,5.60
2023-08-12T13:09:22.707Z,5.85
2023-08-12T13:11:50.340Z,4.03
2023-08-12T13:14:20.789Z,3.67
2023-08-12T13:16:48.434Z,4.13
2023-08-12T13:19:17.374Z,5.95
2023-08-12T13:21:44.917Z,4.78
2023-08-12T13:24:13.167Z,4.28
2023-08-12T13:26:40.904Z,4.05
2023-08-12T13:29:08.745Z,3.97
2023-08-12T13:31:36.457Z,5.13
2023-08-12T13:34:04.462Z,3.33
2023-08-12T13:36:33.457Z,4.72
2023-08-12T13:39:01.506Z,3.50
2023-08-12T13:41:29.249Z,5.10
2023-08-12T13:43:56.911Z,3.40
2023-08-12T13:46:24.646Z,3.53
2023-08-12T13:48:52.294Z,5.65
2023-08-12T13:51:19.918Z,4.35
2023-08-12T13:53:48.963Z,4.50
2023-08-12T13:56:17.292Z,7.80
2023-08-12T13:58:44.934Z,7.28
2023-08-12T14:01:12.750Z,4.70
2023-08-12T14:03:40.388Z,3.78
2023-08-12T14:06:11.203Z,5.97
2023-08-12T14:08:38.870Z,5.63
2023-08-12T14:11:07.855Z,3.33
2023-08-12T14:13:35.488Z,6.22
2023-08-12T14:16:03.052Z,3.95
2023-08-12T14:18:30.723Z,7.03
2023-08-12T14:20:58.299Z,4.68
2023-08-12T14:23:25.956Z,3.15
2023-08-12T14:25:53.551Z,3.15
2023-08-12T14:28:22.554Z,3.78
2023-08-12T14:30:50.222Z,4.40
2023-08-12T14:33:17.872Z,7.45
2023-08-12T14:35:45.553Z,5.35
2023-08-12T14:38:13.737Z,3.58
2023-08-12T14:40:41.376Z,3.95
2023-08-12T14:43:09.017Z,6.28
2023-08-12T14:45:37.951Z,8.25
2023-08-12T14:48:05.956Z,3.55
2023-08-12T14:50:33.602Z,3.85
2023-08-12T14:53:01.229Z,4.80
2023-08-12T14:55:28.868Z,4.63
2023-08-12T14:57:56.509Z,4.00
2023-08-12T15:00:24.213Z,4.70
2023-08-12T15:02:53.267Z,3.92
2023-08-12T15:05:20.934Z,3.05
2023-08-12T15:07:48.628Z,3.63
2023-08-12T15:10:16.250Z,4.78
2023-08-12T15:12:43.984Z,4.18
2023-08-12T15:15:11.910Z,3.17
2023-08-12T15:17:39.659Z,2.40
2023-08-12T15:20:11.476Z,4.80
2023-08-12T15:22:39.326Z,4.55
2023-08-12T15:25:07.731Z,4.50
2023-08-12T15:27:35.459Z,2.95
2023-08-12T15:30:03.322Z,3.95
2023-08-12T15:32:31.723Z,2.58
2023-08-12T15:34:59.480Z,4.70
2023-08-12T15:37:28.482Z,3.80
2023-08-12T15:39:56.070Z,3.28
2023-08-12T15:42:23.682Z,3.47
2023-08-12T15:44:51.308Z,3.95
2023-08-12T15:47:18.900Z,3.70
2023-08-12T15:49:46.513Z,3.08
2023-08-12T15:52:14.099Z,4.22
2023-08-12T15:54:43.165Z,3.80
2023-08-12T15:57:11.470Z,3.65
2023-08-12T15:59:39.329Z,6.25
2023-08-12T16:02:08.720Z,2.75
2023-08-12T16:04:37.866Z,3.28
2023-08-12T16:07:05.713Z,3.17
2023-08-12T16:09:33.381Z,7.47
2023-08-12T16:12:02.491Z,5.03
2023-08-12T16:14:30.100Z,6.63
2023-08-12T16:16:57.759Z,4.28
2023-08-12T16:19:25.341Z,3.97
2023-08-12T16:21:52.971Z,3.40
2023-08-12T16:24:20.571Z,3.35
2023-08-12T16:26:48.301Z,5.00
2023-08-12T16:29:17.332Z,3.65
2023-08-12T16:31:45.017Z,3.95
2023-08-12T16:34:12.669Z,4.57
2023-08-12T16:36:40.278Z,3.47
2023-08-12T16:39:09.999Z,4.45
2023-08-12T16:41:37.935Z,3.97
2023-08-12T16:44:06.061Z,3.17
2023-08-12T16:46:35.008Z,3.95
2023-08-12T16:49:02.650Z,4.28
2023-08-12T16:51:30.691Z,4.75
2023-08-12T16:53:58.433Z,3.17
2023-08-12T16:56:26.175Z,3.33
2023-08-12T16:58:53.817Z,4.88
2023-08-12T17:01:22.303Z,4.05
2023-08-12T17:03:51.550Z,4.70
2023-08-12T17:06:19.229Z,7.35
2023-08-12T17:08:46.865Z,8.07
2023-08-12T17:11:14.463Z,4.57
2023-08-12T17:13:42.936Z,2.72
2023-08-12T17:16:10.637Z,4.75
2023-08-12T17:18:38.266Z,7.72
2023-08-12T17:21:07.271Z,3.10
2023-08-12T17:23:35.198Z,4.05
2023-08-12T17:26:02.847Z,4.85
2023-08-12T17:28:30.478Z,4.65
2023-08-12T17:30:58.161Z,4.28
2023-08-12T17:33:25.919Z,3.88
2023-08-12T17:35:53.539Z,2.70
2023-08-12T17:38:22.544Z,3.97
2023-08-12T17:40:50.917Z,3.15
2023-08-12T17:43:18.529Z,3.35
2023-08-12T17:45:46.205Z,4.28
2023-08-12T17:48:13.932Z,3.70
2023-08-12T17:50:41.806Z,5.88
2023-08-12T17:53:09.579Z,2.90
2023-08-12T17:55:38.629Z,4.25
2023-08-12T17:58:07.230Z,3.92
2023-08-12T18:00:34.975Z,3.08
2023-08-12T18:03:02.688Z,4.60
2023-08-12T18:05:30.401Z,3.63
2023-08-12T18:07:58.055Z,4.88
2023-08-12T18:10:27.205Z,3.00
2023-08-12T18:12:56.222Z,4.20
2023-08-12T18:15:23.986Z,4.68
2023-08-12T18:17:52.666Z,4.47
2023-08-12T18:20:20.542Z,4.47
2023-08-12T18:22:48.224Z,4.53
2023-08-12T18:25:15.824Z,7.93
2023-08-12T18:27:43.452Z,3.03
2023-08-12T18:30:13.246Z,3.72
2023-08-12T18:32:41.129Z,2.88
2023-08-12T18:35:08.945Z,3.53
2023-08-12T18:37:36.534Z,4.15
2023-08-12T18:40:04.288Z,4.68
2023-08-12T18:42:31.950Z,5.07
2023-08-12T18:44:59.635Z,7.78
2023-08-12T18:47:28.568Z,3.28
2023-08-12T18:49:56.208Z,3.15
2023-08-12T18:52:23.860Z,3.53
2023-08-12T18:54:51.544Z,3.97
2023-08-12T18:57:19.185Z,3.15
2023-08-12T18:59:46.839Z,2.95
2023-08-12T19:02:16.635Z,3.30
2023-08-12T19:04:45.922Z,5.50
2023-08-12T19:07:13.592Z,3.58
2023-08-12T19:09:41.185Z,5.75
2023-08-12T19:12:10.705Z,3.22
2023-08-12T19:14:38.354Z,4.97
2023-08-12T19:17:06.176Z,3.22
2023-08-12T19:19:33.766Z,3.40
2023-08-12T19:22:02.800Z,2.95
2023-08-12T19:24:30.676Z,2.65
2023-08-12T19:26:58.612Z,3.08
2023-08-12T19:29:26.239Z,3.92
2023-08-12T19:31:53.883Z,4.18
2023-08-12T19:34:21.541Z,3.80
2023-08-12T19:36:49.192Z,2.38
2023-08-12T19:39:19.104Z,2.70
2023-08-12T19:41:46.773Z,3.65
2023-08-12T19:44:14.403Z,2.70
2023-08-12T19:46:42.113Z,2.83
2023-08-12T19:49:09.791Z,5.15
2023-08-12T19:51:37.456Z,2.70
2023-08-12T19:54:05.711Z,2.70
2023-08-12T19:56:34.730Z,2.63
2023-08-12T19:59:02.325Z,2.88
2023-08-12T20:01:30.039Z,2.13
2023-08-12T20:03:57.746Z,2.80
2023-08-12T20:06:25.407Z,2.95
2023-08-12T20:08:53.344Z,2.40
2023-08-12T20:11:20.981Z,4.00
2023-08-12T20:13:49.902Z,3.00
2023-08-12T20:16:17.544Z,5.88
2023-08-12T20:18:45.176Z,4.40
2023-08-12T20:21:12.780Z,3.95
2023-08-12T20:23:40.349Z,5.35
2023-08-12T20:26:10.172Z,53.88
2023-08-12T20:28:37.786Z,9.82
2023-08-12T20:31:06.766Z,4.45
2023-08-12T20:33:34.447Z,4.65
2023-08-12T20:36:02.197Z,4.90
2023-08-12T20:38:29.863Z,3.05
2023-08-12T20:40:57.422Z,3.22
2023-08-12T20:43:25.791Z,2.72
2023-08-12T20:45:54.239Z,2.80
2023-08-12T20:48:23.235Z,4.25
2023-08-12T20:50:50.901Z,2.10
2023-08-12T20:53:18.469Z,3.22
2023-08-12T20:55:46.298Z,4.97
2023-08-12T20:58:13.885Z,2.72
2023-08-12T21:00:41.473Z,2.75
2023-08-12T21:03:09.206Z,4.45
2023-08-12T21:05:39.127Z,3.65
2023-08-12T21:08:06.990Z,4.87
2023-08-12T21:10:34.726Z,4.40
2023-08-12T21:13:02.351Z,3.53
2023-08-12T21:15:30.057Z,2.63
2023-08-12T21:17:57.752Z,2.35
2023-08-12T21:20:25.538Z,2.13
2023-08-12T21:22:54.534Z,2.30
2023-08-12T21:25:22.128Z,2.73
2023-08-12T21:27:49.814Z,2.42
2023-08-12T21:30:17.995Z,2.53
2023-08-12T21:32:45.745Z,3.70
2023-08-12T21:35:13.375Z,2.13
2023-08-12T21:37:41.116Z,2.33
2023-08-12T21:40:12.304Z,3.57
2023-08-12T21:42:40.009Z,2.90
2023-08-12T21:45:08.811Z,3.30
2023-08-12T21:47:36.415Z,3.03
2023-08-12T21:50:04.185Z,3.73
2023-08-12T21:52:31.785Z,3.70
2023-08-12T21:54:59.627Z,2.35
2023-08-12T21:57:28.569Z,2.53
2023-08-12T21:59:56.297Z,3.70
2023-08-12T22:02:25.168Z,3.13
2023-08-12T22:04:52.845Z,2.53
2023-08-12T22:07:20.511Z,5.20
2023-08-12T22:09:48.192Z,2.85
2023-08-12T22:12:16.206Z,5.47
2023-08-12T22:14:45.314Z,2.47
2023-08-12T22:17:12.964Z,3.30
2023-08-12T22:19:40.590Z,2.50
2023-08-12T22:22:18.454Z,3.97
2023-08-12T22:24:47.615Z,3.28
2023-08-12T22:27:15.387Z,5.60
2023-08-12T22:29:42.994Z,5.07
2023-08-12T22:32:12.467Z,2.50
2023-08-12T22:34:40.379Z,2.53
2023-08-12T22:37:08.065Z,2.75
2023-08-12T22:39:35.666Z,2.70
2023-08-12T22:42:03.265Z,2.90
2023-08-12T22:44:30.945Z,1.85
2023-08-12T22:46:58.634Z,3.30
2023-08-12T22:49:27.676Z,2.47
2023-08-12T22:51:55.369Z,2.90
2023-08-12T22:54:23.030Z,2.20
2023-08-12T22:56:50.658Z,3.47
2023-08-12T22:59:19.262Z,3.83
2023-08-12T23:01:47.006Z,2.20
2023-08-12T23:04:14.571Z,2.10
2023-08-12T23:06:43.536Z,2.07
2023-08-12T23:09:11.176Z,6.60
2023-08-12T23:11:38.792Z,4.90
2023-08-12T23:14:06.442Z,4.00
2023-08-12T23:16:34.025Z,2.30
2023-08-12T23:19:01.696Z,2.20
2023-08-12T23:21:29.346Z,2.03
2023-08-12T23:23:58.275Z,2.00
2023-08-12T23:26:25.885Z,1.83
2023-08-12T23:28:53.513Z,2.47
2023-08-12T23:31:21.195Z,1.97
2023-08-12T23:33:48.847Z,2.53
2023-08-12T23:36:16.456Z,2.20
2023-08-12T23:38:44.086Z,2.53
2023-08-12T23:41:13.056Z,3.53
2023-08-12T23:43:40.684Z,3.20
2023-08-12T23:46:08.266Z,5.53
2023-08-12T23:48:35.852Z,4.40
2023-08-12T23:51:03.483Z,2.67
2023-08-12T23:53:31.069Z,3.33
2023-08-12T23:55:58.731Z,2.00
2023-08-12T23:58:27.710Z,2.30
